Time;durP1;ratioP1;P1;durP2;ratioP2;P2;SDS_P1;SDS_P2;PMS_P1;PMS_P2;Temp;Humidity;BMP_temperature;BMP_pressure;BME280_temperature;BME280_humidity;BME280_pressure;Samples;Min_cycle;Max_cycle;Signal;HPM_P1;HPM_P2
2022/11/18 00:00:56;;;;;;;14.27;8.00;;;;;;;;;;5055256;28;20199;-40
2022/11/18 00:03:23;;;;;;;11.47;7.73;;;;;;;;;;5054895;28;20204;-40
2022/11/18 00:05:54;;;;;;;12.40;7.80;;;;;;;;;;5054701;28;20743;-41
2022/11/18 00:08:22;;;;;;;14.43;8.97;;;;;;;;;;5055038;28;20293;-42
2022/11/18 00:10:49;;;;;;;13.80;8.27;;;;;;;;;;5054537;28;20219;-41
2022/11/18 00:16:07;;;;;;;16.33;8.70;;;;;;;;;;5054827;28;20204;-41
2022/11/18 00:18:35;;;;;;;15.00;9.53;;;;;;;;;;5055001;28;20204;-41
2022/11/18 00:21:03;;;;;;;15.20;9.70;;;;;;;;;;5054768;28;20204;-41
2022/11/18 00:23:30;;;;;;;14.70;9.10;;;;;;;;;;5054581;28;20620;-40
2022/11/18 00:26:15;;;;;;;15.70;9.07;;;;;;;;;;5054449;28;20200;-40
2022/11/18 00:28:42;;;;;;;12.67;8.53;;;;;;;;;;5055784;28;20613;-41
2022/11/18 00:31:12;;;;;;;15.73;9.60;;;;;;;;;;5058803;28;20238;-41
2022/11/18 00:33:39;;;;;;;14.27;8.30;;;;;;;;;;5058741;28;20232;-40
2022/11/18 00:36:09;;;;;;;12.57;8.37;;;;;;;;;;5058510;28;20539;-41
2022/11/18 00:38:36;;;;;;;16.77;8.60;;;;;;;;;;5058754;28;20219;-41
2022/11/18 00:41:06;;;;;;;15.07;9.47;;;;;;;;;;5058641;28;20204;-41
2022/11/18 00:43:33;;;;;;;12.03;8.57;;;;;;;;;;5058621;28;20286;-41
2022/11/18 00:46:01;;;;;;;13.13;8.57;;;;;;;;;;5058573;28;20215;-41
2022/11/18 00:48:28;;;;;;;12.50;8.10;;;;;;;;;;5058521;28;20224;-41
2022/11/18 00:50:57;;;;;;;12.90;8.93;;;;;;;;;;5058170;28;20242;-40
2022/11/18 00:53:25;;;;;;;17.50;9.93;;;;;;;;;;5058412;28;20210;-41
2022/11/18 00:55:52;;;;;;;15.00;8.60;;;;;;;;;;5058074;28;20632;-41
2022/11/18 00:58:19;;;;;;;14.03;8.50;;;;;;;;;;5058313;28;20227;-41
2022/11/18 01:00:51;;;;;;;13.77;9.00;;;;;;;;;;5058111;28;20212;-41
2022/11/18 01:03:18;;;;;;;13.57;8.97;;;;;;;;;;5041441;28;20211;-40
2022/11/18 01:05:46;;;;;;;14.13;8.50;;;;;;;;;;5057923;28;20663;-44
2022/11/18 01:08:13;;;;;;;12.63;7.97;;;;;;;;;;5058185;28;20243;-40
2022/11/18 01:10:41;;;;;;;14.23;8.67;;;;;;;;;;5057930;28;20215;-40
2022/11/18 01:13:21;;;;;;;13.97;8.77;;;;;;;;;;5057887;28;20239;-40
2022/11/18 01:15:55;;;;;;;15.87;9.57;;;;;;;;;;5058161;28;20195;-40
2022/11/18 01:18:28;;;;;;;13.97;8.87;;;;;;;;;;5057852;28;20269;-41
2022/11/18 01:21:00;;;;;;;14.80;8.13;;;;;;;;;;5058093;28;20184;-41
2022/11/18 01:23:27;;;;;;;14.47;9.47;;;;;;;;;;5057582;28;20648;-40
2022/11/18 01:25:54;;;;;;;15.80;8.83;;;;;;;;;;5057834;28;20223;-41
2022/11/18 01:28:21;;;;;;;16.80;9.27;;;;;;;;;;5058448;28;20291;-41
2022/11/18 01:30:50;;;;;;;12.30;8.80;;;;;;;;;;5057609;28;20208;-40
2022/11/18 01:33:17;;;;;;;13.33;8.67;;;;;;;;;;5057448;28;20235;-42
2022/11/18 01:35:44;;;;;;;12.80;8.07;;;;;;;;;;5057442;28;20291;-40
2022/11/18 01:38:12;;;;;;;13.50;8.70;;;;;;;;;;5057383;28;20633;-41
2022/11/18 01:40:39;;;;;;;12.80;8.37;;;;;;;;;;5057381;28;20287;-40
2022/11/18 01:43:17;;;;;;;12.43;7.93;;;;;;;;;;5057472;28;20540;-41
2022/11/18 01:45:46;;;;;;;12.60;8.67;;;;;;;;;;5057539;28;20290;-41
2022/11/18 01:48:24;;;;;;;13.37;8.27;;;;;;;;;;5057546;28;20502;-41
2022/11/18 01:50:53;;;;;;;15.37;8.53;;;;;;;;;;5056330;28;20237;-41
2022/11/18 01:53:25;;;;;;;12.57;8.27;;;;;;;;;;5057509;28;20216;-41
2022/11/18 01:55:53;;;;;;;13.47;8.80;;;;;;;;;;5056220;28;20282;-40
2022/11/18 01:58:28;;;;;;;17.87;8.97;;;;;;;;;;5056303;28;20200;-41
2022/11/18 02:00:54;;;;;;;15.70;9.07;;;;;;;;;;5057014;28;20195;-41
2022/11/18 02:03:22;;;;;;;13.80;8.67;;;;;;;;;;5056863;28;20710;-41
2022/11/18 02:05:49;;;;;;;11.67;8.33;;;;;;;;;;5056240;28;20200;-41
2022/11/18 02:08:17;;;;;;;13.30;8.93;;;;;;;;;;5055940;28;20254;-40
2022/11/18 02:10:44;;;;;;;17.17;8.90;;;;;;;;;;5056981;28;20207;-41
2022/11/18 02:13:11;;;;;;;12.93;8.87;;;;;;;;;;5056649;28;20238;-40
2022/11/18 02:15:51;;;;;;;14.50;8.77;;;;;;;;;;5056007;28;20204;-41
2022/11/18 02:18:51;;;;;;;13.67;9.07;;;;;;;;;;5056276;28;20261;-41
2022/11/18 02:21:21;;;;;;;14.63;9.37;;;;;;;;;;5056175;28;20574;-41
2022/11/18 02:24:21;;;;;;;12.93;9.00;;;;;;;;;;5056629;28;20208;-42
2022/11/18 02:26:57;;;;;;;13.07;8.80;;;;;;;;;;5056477;28;20283;-41
2022/11/18 02:29:37;;;;;;;14.70;9.40;;;;;;;;;;5055964;28;20196;-42
2022/11/18 02:32:10;;;;;;;12.30;7.97;;;;;;;;;;5056709;28;20306;-42
2022/11/18 02:34:47;;;;;;;15.43;9.17;;;;;;;;;;5055988;28;20204;-40
2022/11/18 02:37:16;;;;;;;13.80;9.03;;;;;;;;;;5056789;28;20219;-40
2022/11/18 02:39:47;;;;;;;15.57;9.60;;;;;;;;;;5055502;28;20204;-41
2022/11/18 02:42:14;;;;;;;14.90;9.30;;;;;;;;;;5055750;28;20283;-44
2022/11/18 02:44:45;;;;;;;13.73;9.43;;;;;;;;;;5055453;28;20204;-41
2022/11/18 02:47:14;;;;;;;16.40;9.33;;;;;;;;;;5056009;28;20208;-40
2022/11/18 02:49:44;;;;;;;15.20;9.13;;;;;;;;;;5055366;28;20265;-40
2022/11/18 02:52:12;;;;;;;19.30;9.93;;;;;;;;;;5055558;28;20220;-41
2022/11/18 02:54:40;;;;;;;14.10;9.10;;;;;;;;;;5055298;28;20204;-41
2022/11/18 02:57:08;;;;;;;15.70;9.30;;;;;;;;;;5055371;28;20204;-42
2022/11/18 02:59:35;;;;;;;16.10;9.70;;;;;;;;;;5055729;28;20200;-41
2022/11/18 03:02:02;;;;;;;13.00;9.07;;;;;;;;;;5056044;28;20645;-40
2022/11/18 03:04:30;;;;;;;13.57;8.53;;;;;;;;;;5055768;28;20226;-40
2022/11/18 03:07:09;;;;;;;13.90;9.53;;;;;;;;;;5055164;28;20242;-40
2022/11/18 03:09:39;;;;;;;14.13;9.23;;;;;;;;;;5056510;28;20196;-41
2022/11/18 03:12:34;;;;;;;14.67;9.60;;;;;;;;;;5055595;28;20318;-41
2022/11/18 03:15:07;;;;;;;13.10;9.40;;;;;;;;;;5055849;28;20211;-42
2022/11/18 03:17:59;;;;;;;12.77;8.90;;;;;;;;;;5055841;28;20192;-40
2022/11/18 03:20:37;;;;;;;17.77;10.00;;;;;;;;;;5055369;28;20310;-40
2022/11/18 03:23:13;;;;;;;14.80;9.30;;;;;;;;;;5055337;28;20214;-41
2022/11/18 03:25:46;;;;;;;18.40;10.67;;;;;;;;;;5054460;28;20195;-40
2022/11/18 03:28:22;;;;;;;16.93;9.60;;;;;;;;;;5055219;28;20192;-41
2022/11/18 03:31:13;;;;;;;14.13;9.60;;;;;;;;;;5055879;28;20192;-41
2022/11/18 03:33:54;;;;;;;14.43;9.23;;;;;;;;;;5055305;28;20268;-41
2022/11/18 03:36:26;;;;;;;17.50;10.63;;;;;;;;;;5054466;28;20207;-41
2022/11/18 03:38:57;;;;;;;17.23;10.33;;;;;;;;;;5054957;28;20192;-41
2022/11/18 03:41:28;;;;;;;14.67;10.47;;;;;;;;;;5054264;28;20645;-41
2022/11/18 03:44:08;;;;;;;15.70;10.67;;;;;;;;;;5054369;28;20590;-42
2022/11/18 03:46:40;;;;;;;15.37;9.80;;;;;;;;;;5055173;28;20200;-40
2022/11/18 03:49:10;;;;;;;16.40;11.03;;;;;;;;;;5054300;28;20536;-41
2022/11/18 03:51:43;;;;;;;16.73;10.47;;;;;;;;;;5037703;28;20204;-41
2022/11/18 03:54:19;;;;;;;16.87;10.20;;;;;;;;;;5055010;28;20645;-41
2022/11/18 03:56:50;;;;;;;23.90;10.97;;;;;;;;;;5054163;28;20219;-41
2022/11/18 03:59:20;;;;;;;15.83;10.33;;;;;;;;;;5054389;28;20204;-41
2022/11/18 04:02:07;;;;;;;19.33;11.37;;;;;;;;;;5053910;28;20207;-41
2022/11/18 04:04:34;;;;;;;19.57;11.63;;;;;;;;;;5053939;28;20192;-41
2022/11/18 04:07:08;;;;;;;18.07;11.77;;;;;;;;;;5054938;28;20204;-41
2022/11/18 04:09:50;;;;;;;59.90;25.37;;;;;;;;;;5054316;28;20196;-41
2022/11/18 04:12:20;;;;;;;18.87;12.17;;;;;;;;;;5054043;28;20235;-41
2022/11/18 04:14:48;;;;;;;24.53;12.60;;;;;;;;;;5054904;28;20679;-41
2022/11/18 04:17:19;;;;;;;19.60;11.13;;;;;;;;;;5054058;28;20208;-42
2022/11/18 04:19:46;;;;;;;18.13;11.10;;;;;;;;;;5054955;28;20564;-41
2022/11/18 04:22:14;;;;;;;16.27;10.87;;;;;;;;;;5054710;28;20207;-40
2022/11/18 04:24:41;;;;;;;18.87;11.10;;;;;;;;;;5054607;28;20590;-40
2022/11/18 04:27:08;;;;;;;17.07;10.73;;;;;;;;;;5054749;28;20547;-41
2022/11/18 04:29:35;;;;;;;19.43;11.63;;;;;;;;;;5054315;28;20231;-41
2022/11/18 04:32:02;;;;;;;18.47;11.40;;;;;;;;;;5055099;28;20255;-41
2022/11/18 04:34:29;;;;;;;17.90;12.40;;;;;;;;;;5054526;28;20620;-41
2022/11/18 04:36:57;;;;;;;22.67;12.17;;;;;;;;;;5054624;28;20204;-41
2022/11/18 04:39:24;;;;;;;19.33;11.17;;;;;;;;;;5054658;28;20195;-41
2022/11/18 04:41:54;;;;;;;18.43;11.80;;;;;;;;;;5052892;28;20584;-41
2022/11/18 04:44:25;;;;;;;19.50;11.97;;;;;;;;;;5052787;28;20206;-41
2022/11/18 04:46:53;;;;;;;24.50;13.47;;;;;;;;;;5043271;28;20768;-42
2022/11/18 04:49:21;;;;;;;23.40;12.67;;;;;;;;;;5034634;28;20239;-44
2022/11/18 04:51:49;;;;;;;20.87;12.27;;;;;;;;;;5049082;28;20208;-44
2022/11/18 04:54:16;;;;;;;20.83;12.93;;;;;;;;;;5054186;28;20248;-42
2022/11/18 04:56:44;;;;;;;19.10;11.83;;;;;;;;;;5052503;28;20281;-40
2022/11/18 04:59:17;;;;;;;21.10;13.13;;;;;;;;;;5054396;28;20295;-41
2022/11/18 05:01:46;;;;;;;19.23;12.43;;;;;;;;;;5054409;28;20211;-40
2022/11/18 05:04:15;;;;;;;21.27;12.83;;;;;;;;;;5054432;28;20212;-42
2022/11/18 05:06:43;;;;;;;21.80;13.27;;;;;;;;;;5054408;28;20200;-41
2022/11/18 05:09:10;;;;;;;21.23;12.83;;;;;;;;;;5054180;28;20256;-41
2022/11/18 05:14:26;;;;;;;22.93;13.47;;;;;;;;;;5044666;28;20238;-41
2022/11/18 05:16:55;;;;;;;19.03;12.40;;;;;;;;;;5056801;28;20293;-41
2022/11/18 05:19:21;;;;;;;22.73;13.47;;;;;;;;;;5056511;28;20624;-41
2022/11/18 05:21:49;;;;;;;19.73;12.83;;;;;;;;;;5056605;28;20239;-40
2022/11/18 05:24:16;;;;;;;22.33;13.00;;;;;;;;;;5055565;28;20222;-41
2022/11/18 05:26:44;;;;;;;21.90;12.47;;;;;;;;;;5043047;28;20555;-40
2022/11/18 05:29:11;;;;;;;21.80;13.63;;;;;;;;;;5045402;28;20251;-42
2022/11/18 05:31:38;;;;;;;20.07;13.47;;;;;;;;;;5056866;28;20302;-41
2022/11/18 05:34:05;;;;;;;19.53;13.43;;;;;;;;;;5056626;28;20240;-45
2022/11/18 05:36:33;;;;;;;25.10;14.63;;;;;;;;;;5056668;28;20220;-41
2022/11/18 05:39:00;;;;;;;23.37;14.77;;;;;;;;;;5056546;28;20311;-41
2022/11/18 05:44:12;;;;;;;20.50;13.87;;;;;;;;;;5055500;28;20224;-41
2022/11/18 05:46:40;;;;;;;20.70;14.07;;;;;;;;;;5056442;28;20219;-42
2022/11/18 05:49:07;;;;;;;20.37;13.63;;;;;;;;;;5052391;28;20228;-42
2022/11/18 05:51:34;;;;;;;21.47;13.60;;;;;;;;;;5055390;28;20259;-42
2022/11/18 05:54:07;;;;;;;20.83;13.73;;;;;;;;;;5054953;28;20782;-42
2022/11/18 05:56:39;;;;;;;22.00;13.27;;;;;;;;;;5053755;28;20668;-45
2022/11/18 05:59:06;;;;;;;26.63;14.53;;;;;;;;;;5053161;28;20282;-42
2022/11/18 06:02:02;;;;;;;23.03;14.13;;;;;;;;;;5055044;28;20227;-41
2022/11/18 06:04:36;;;;;;;24.87;13.47;;;;;;;;;;5055831;28;20286;-43
2022/11/18 06:07:14;;;;;;;22.40;14.07;;;;;;;;;;5056038;28;20244;-41
2022/11/18 06:09:44;;;;;;;21.20;14.50;;;;;;;;;;5056019;28;20227;-41
2022/11/18 06:12:14;;;;;;;25.10;14.47;;;;;;;;;;5055845;28;20235;-45
2022/11/18 06:14:43;;;;;;;22.60;15.30;;;;;;;;;;5045444;28;20664;-41
2022/11/18 06:17:19;;;;;;;24.13;13.63;;;;;;;;;;5055800;28;20235;-45
2022/11/18 06:19:46;;;;;;;22.00;13.80;;;;;;;;;;5056240;28;20310;-41
2022/11/18 06:22:13;;;;;;;24.07;13.93;;;;;;;;;;5055627;28;20699;-42
2022/11/18 06:24:41;;;;;;;20.50;13.03;;;;;;;;;;5056101;28;20234;-41
2022/11/18 06:27:09;;;;;;;21.67;13.70;;;;;;;;;;5048653;28;20259;-42
2022/11/18 06:29:36;;;;;;;25.63;14.20;;;;;;;;;;5054887;28;20256;-41
2022/11/18 06:32:03;;;;;;;19.13;13.40;;;;;;;;;;5056056;28;20235;-40
2022/11/18 06:34:30;;;;;;;22.17;13.57;;;;;;;;;;5054020;28;20235;-41
2022/11/18 06:37:14;;;;;;;19.50;13.23;;;;;;;;;;5055871;28;20278;-41
2022/11/18 06:39:41;;;;;;;23.80;14.93;;;;;;;;;;5054603;28;20217;-42
2022/11/18 06:42:08;;;;;;;21.00;14.57;;;;;;;;;;5055025;28;20228;-48
2022/11/18 06:44:35;;;;;;;22.77;14.10;;;;;;;;;;5055126;28;20220;-42
2022/11/18 06:47:03;;;;;;;25.43;14.70;;;;;;;;;;5055868;28;20220;-41
2022/11/18 06:49:29;;;;;;;22.17;14.23;;;;;;;;;;5055004;28;20575;-41
2022/11/18 06:51:56;;;;;;;17.70;13.27;;;;;;;;;;5054680;28;20334;-41
2022/11/18 06:54:23;;;;;;;23.90;13.83;;;;;;;;;;5053583;28;20240;-42
2022/11/18 06:56:50;;;;;;;25.50;13.70;;;;;;;;;;5070361;28;20257;-41
2022/11/18 06:59:22;;;;;;;22.40;14.30;;;;;;;;;;5055156;28;20219;-44
2022/11/18 07:01:51;;;;;;;21.73;14.10;;;;;;;;;;5053991;28;20569;-41
2022/11/18 07:04:19;;;;;;;21.00;13.83;;;;;;;;;;5054003;28;20218;-42
2022/11/18 07:06:46;;;;;;;23.47;14.87;;;;;;;;;;5054588;28;20207;-41
2022/11/18 07:09:13;;;;;;;24.37;13.17;;;;;;;;;;5054244;28;20266;-45
2022/11/18 07:11:40;;;;;;;24.47;13.73;;;;;;;;;;5054314;28;20241;-42
2022/11/18 07:14:08;;;;;;;22.33;14.10;;;;;;;;;;5055006;28;20227;-41
2022/11/18 07:16:35;;;;;;;17.73;12.33;;;;;;;;;;5055495;28;20637;-41
2022/11/18 07:19:10;;;;;;;21.87;14.10;;;;;;;;;;5056130;28;20291;-41
2022/11/18 07:21:39;;;;;;;19.67;13.87;;;;;;;;;;5055819;28;20196;-41
2022/11/18 07:24:07;;;;;;;19.30;13.73;;;;;;;;;;5055616;28;20285;-40
2022/11/18 07:26:35;;;;;;;20.17;13.77;;;;;;;;;;5055746;28;20195;-40
2022/11/18 07:29:03;;;;;;;24.70;14.40;;;;;;;;;;5055204;28;20281;-40
2022/11/18 07:31:31;;;;;;;22.20;15.27;;;;;;;;;;5055549;28;20220;-41
2022/11/18 07:33:57;;;;;;;21.27;13.80;;;;;;;;;;5055585;28;20310;-42
2022/11/18 07:36:27;;;;;;;24.80;16.00;;;;;;;;;;5055454;28;20225;-41
2022/11/18 07:39:01;;;;;;;25.37;16.53;;;;;;;;;;5055221;28;20219;-41
2022/11/18 07:41:29;;;;;;;23.23;15.43;;;;;;;;;;5054257;28;20223;-41
2022/11/18 07:43:57;;;;;;;25.87;15.33;;;;;;;;;;5055332;28;20712;-41
2022/11/18 07:46:35;;;;;;;22.50;15.07;;;;;;;;;;5055306;28;20208;-41
2022/11/18 07:49:07;;;;;;;22.80;14.27;;;;;;;;;;5055331;28;20495;-41
2022/11/18 07:51:37;;;;;;;20.80;14.40;;;;;;;;;;5055140;28;20199;-40
2022/11/18 07:54:05;;;;;;;24.37;15.23;;;;;;;;;;5054964;28;20219;-41
2022/11/18 07:56:33;;;;;;;30.37;16.10;;;;;;;;;;5055341;28;20554;-40
2022/11/18 07:58:59;;;;;;;30.97;18.97;;;;;;;;;;5054769;28;20200;-41
2022/11/18 08:01:28;;;;;;;38.17;22.20;;;;;;;;;;5055055;28;20200;-41
2022/11/18 08:03:57;;;;;;;39.30;22.60;;;;;;;;;;5055106;28;20199;-41
2022/11/18 08:06:24;;;;;;;20.53;14.37;;;;;;;;;;5054798;28;20629;-41
2022/11/18 08:08:51;;;;;;;21.83;14.47;;;;;;;;;;5054700;28;20274;-41
2022/11/18 08:11:19;;;;;;;83.50;34.63;;;;;;;;;;5054969;28;20200;-40
2022/11/18 08:13:50;;;;;;;96.03;37.23;;;;;;;;;;5054602;28;20707;-44
2022/11/18 08:16:20;;;;;;;153.63;56.27;;;;;;;;;;5054660;28;20655;-41
2022/11/18 08:18:47;;;;;;;52.50;23.57;;;;;;;;;;5054584;28;20195;-41
2022/11/18 08:21:16;;;;;;;47.33;21.73;;;;;;;;;;5054649;28;20200;-40
2022/11/18 08:23:48;;;;;;;102.83;43.37;;;;;;;;;;5054819;28;20200;-40
2022/11/18 08:26:15;;;;;;;50.27;24.87;;;;;;;;;;5054930;28;20192;-41
2022/11/18 08:28:43;;;;;;;143.83;47.53;;;;;;;;;;5054569;28;20199;-41
2022/11/18 08:31:16;;;;;;;262.73;96.90;;;;;;;;;;5054425;28;20200;-41
2022/11/18 08:33:44;;;;;;;176.10;65.77;;;;;;;;;;5054546;28;20251;-41
2022/11/18 08:36:16;;;;;;;108.37;40.00;;;;;;;;;;5054472;28;20203;-41
2022/11/18 08:38:43;;;;;;;222.93;73.93;;;;;;;;;;5054854;28;20220;-41
2022/11/18 08:41:12;;;;;;;221.93;72.77;;;;;;;;;;5054432;28;20215;-41
2022/11/18 08:43:39;;;;;;;375.60;126.27;;;;;;;;;;5054671;28;20215;-41
2022/11/18 08:46:07;;;;;;;278.03;93.53;;;;;;;;;;5054905;28;20192;-41
2022/11/18 08:48:33;;;;;;;390.03;131.50;;;;;;;;;;5054558;28;20547;-41
2022/11/18 08:51:01;;;;;;;67.40;32.10;;;;;;;;;;5057681;28;20200;-41
2022/11/18 08:53:28;;;;;;;77.50;32.00;;;;;;;;;;5057363;28;20687;-41
2022/11/18 08:55:56;;;;;;;36.43;20.67;;;;;;;;;;5058572;28;20216;-41
2022/11/18 08:58:24;;;;;;;91.30;36.03;;;;;;;;;;5058476;28;20200;-41
2022/11/18 09:00:51;;;;;;;92.00;43.90;;;;;;;;;;5058067;28;20216;-40
2022/11/18 09:03:18;;;;;;;91.93;44.77;;;;;;;;;;5058337;28;20200;-41
2022/11/18 09:05:46;;;;;;;118.47;55.67;;;;;;;;;;5057944;28;20535;-41
2022/11/18 09:08:14;;;;;;;97.97;58.13;;;;;;;;;;5057769;28;20315;-41
2022/11/18 09:10:41;;;;;;;29.87;17.30;;;;;;;;;;5058214;28;20258;-41
2022/11/18 09:13:08;;;;;;;27.30;16.17;;;;;;;;;;5058467;28;20196;-41
2022/11/18 09:15:59;;;;;;;25.40;16.33;;;;;;;;;;5058287;28;20200;-41
2022/11/18 09:18:26;;;;;;;41.83;23.10;;;;;;;;;;5057885;28;20218;-41
2022/11/18 09:21:02;;;;;;;25.67;15.57;;;;;;;;;;5058087;28;20204;-41
2022/11/18 09:23:30;;;;;;;23.37;15.70;;;;;;;;;;5058627;28;20271;-41
2022/11/18 09:26:02;;;;;;;25.20;15.47;;;;;;;;;;5057778;28;20663;-41
2022/11/18 09:28:29;;;;;;;25.47;16.43;;;;;;;;;;5058049;28;20290;-41
2022/11/18 09:30:56;;;;;;;25.70;16.63;;;;;;;;;;5057649;28;20591;-42
2022/11/18 09:33:23;;;;;;;30.70;17.80;;;;;;;;;;5058174;28;20200;-41
2022/11/18 09:35:51;;;;;;;40.17;24.27;;;;;;;;;;5057472;28;20676;-41
2022/11/18 09:38:17;;;;;;;23.63;15.47;;;;;;;;;;5057517;28;20699;-43
2022/11/18 09:40:52;;;;;;;26.20;16.43;;;;;;;;;;5057666;28;20211;-41
2022/11/18 09:43:54;;;;;;;28.47;16.67;;;;;;;;;;5057800;28;20210;-41
2022/11/18 09:46:27;;;;;;;28.50;16.93;;;;;;;;;;5035627;28;20211;-41
2022/11/18 09:49:14;;;;;;;38.40;22.33;;;;;;;;;;5035793;28;20223;-41
2022/11/18 09:51:45;;;;;;;28.83;17.20;;;;;;;;;;5021666;28;20220;-41
2022/11/18 09:54:27;;;;;;;25.47;16.87;;;;;;;;;;5035605;28;20646;-41
2022/11/18 09:56:54;;;;;;;23.07;15.27;;;;;;;;;;5035629;28;20204;-41
2022/11/18 09:59:24;;;;;;;27.87;17.40;;;;;;;;;;5019263;28;20208;-41
2022/11/18 10:01:55;;;;;;;24.57;16.10;;;;;;;;;;5018844;28;20235;-40
2022/11/18 10:04:22;;;;;;;26.37;15.83;;;;;;;;;;5035639;28;20247;-41
2022/11/18 10:06:49;;;;;;;24.60;16.20;;;;;;;;;;5014877;28;20549;-41
2022/11/18 10:09:24;;;;;;;25.17;16.27;;;;;;;;;;5024920;28;20311;-42
2022/11/18 10:12:02;;;;;;;27.83;16.37;;;;;;;;;;4990714;28;20220;-42
2022/11/18 10:14:45;;;;;;;28.20;17.03;;;;;;;;;;5014274;28;20275;-41
2022/11/18 10:17:33;;;;;;;27.87;16.33;;;;;;;;;;4998259;28;20233;-41
2022/11/18 10:20:08;;;;;;;25.70;15.90;;;;;;;;;;5002538;28;20312;-41
2022/11/18 10:22:45;;;;;;;27.57;16.47;;;;;;;;;;5026534;28;20727;-41
2022/11/18 10:25:14;;;;;;;33.03;18.07;;;;;;;;;;5054572;28;20223;-40
2022/11/18 10:27:43;;;;;;;28.40;18.93;;;;;;;;;;5035997;28;20239;-41
2022/11/18 10:30:12;;;;;;;24.23;15.90;;;;;;;;;;5036122;28;20274;-41
2022/11/18 10:33:21;;;;;;;24.33;16.03;;;;;;;;;;5035595;28;20247;-41
2022/11/18 10:35:48;;;;;;;24.37;15.97;;;;;;;;;;4955484;29;20329;-42
2022/11/18 10:38:18;;;;;;;23.30;15.93;;;;;;;;;;4955978;29;20227;-44
2022/11/18 10:40:51;;;;;;;25.10;16.30;;;;;;;;;;4969605;28;20226;-42
2022/11/18 10:43:44;;;;;;;25.33;16.17;;;;;;;;;;4991883;28;20223;-43
2022/11/18 10:46:34;;;;;;;26.20;15.63;;;;;;;;;;4987072;28;20769;-41
2022/11/18 10:49:07;;;;;;;27.17;16.10;;;;;;;;;;4985719;28;20218;-41
2022/11/18 10:51:40;;;;;;;24.93;16.23;;;;;;;;;;4992867;28;20233;-42
2022/11/18 10:54:08;;;;;;;24.83;15.60;;;;;;;;;;4974774;28;20246;-41
2022/11/18 10:56:54;;;;;;;24.37;15.03;;;;;;;;;;4973301;28;20329;-41
2022/11/18 10:59:38;;;;;;;28.17;16.07;;;;;;;;;;4989156;28;20280;-41
2022/11/18 11:02:21;;;;;;;27.07;15.57;;;;;;;;;;4977867;28;20268;-41
2022/11/18 11:04:50;;;;;;;25.70;15.77;;;;;;;;;;4978267;28;20222;-41
2022/11/18 11:07:37;;;;;;;27.23;16.53;;;;;;;;;;4982134;28;20226;-43
2022/11/18 11:10:04;;;;;;;25.37;16.63;;;;;;;;;;5026557;28;20235;-42
2022/11/18 11:12:45;;;;;;;27.20;16.40;;;;;;;;;;5054030;28;20232;-42
2022/11/18 11:15:16;;;;;;;49.77;22.47;;;;;;;;;;5054960;28;20228;-43
2022/11/18 11:20:51;;;;;;;22.33;14.30;;;;;;;;;;5053126;28;20230;-41
2022/11/18 11:23:18;;;;;;;24.57;15.33;;;;;;;;;;5054785;28;20224;-42
2022/11/18 11:26:14;;;;;;;23.03;14.93;;;;;;;;;;5036997;28;20650;-41
2022/11/18 11:29:15;;;;;;;25.63;15.07;;;;;;;;;;5053798;28;20223;-41
2022/11/18 11:31:49;;;;;;;23.57;15.80;;;;;;;;;;5054372;28;20266;-47
2022/11/18 11:34:22;;;;;;;23.33;15.43;;;;;;;;;;5052777;28;20247;-43
2022/11/18 11:37:05;;;;;;;28.07;16.07;;;;;;;;;;5052885;28;20219;-41
2022/11/18 11:39:53;;;;;;;24.57;14.83;;;;;;;;;;5054225;28;20235;-41
2022/11/18 11:42:28;;;;;;;26.83;16.50;;;;;;;;;;5051122;28;20246;-49
2022/11/18 11:45:04;;;;;;;28.33;16.23;;;;;;;;;;5042365;28;20247;-42
2022/11/18 11:47:55;;;;;;;24.77;14.70;;;;;;;;;;5038882;28;20692;-42
2022/11/18 11:50:29;;;;;;;27.00;15.70;;;;;;;;;;5053274;28;20215;-48
2022/11/18 11:53:15;;;;;;;28.50;15.17;;;;;;;;;;5052236;28;20224;-41
2022/11/18 11:56:01;;;;;;;23.63;14.17;;;;;;;;;;5053870;28;20232;-42
2022/11/18 11:58:46;;;;;;;25.30;15.27;;;;;;;;;;5054235;28;20552;-41
2022/11/18 12:01:21;;;;;;;23.87;15.33;;;;;;;;;;5054568;28;20224;-41
2022/11/18 12:04:31;;;;;;;23.43;14.83;;;;;;;;;;5053271;28;20224;-42
2022/11/18 12:06:59;;;;;;;31.47;15.80;;;;;;;;;;5038370;28;20286;-41
2022/11/18 12:09:33;;;;;;;23.33;14.43;;;;;;;;;;5052559;28;20266;-41
2022/11/18 12:12:34;;;;;;;22.70;14.57;;;;;;;;;;5052715;28;20224;-41
2022/11/18 12:15:19;;;;;;;22.83;14.77;;;;;;;;;;5054031;28;20553;-41
2022/11/18 12:18:19;;;;;;;24.03;14.60;;;;;;;;;;5052998;28;20224;-42
2022/11/18 12:20:48;;;;;;;23.30;14.40;;;;;;;;;;5054171;28;20223;-42
2022/11/18 12:23:16;;;;;;;28.77;15.97;;;;;;;;;;5053749;28;20228;-46
2022/11/18 12:25:51;;;;;;;23.07;14.17;;;;;;;;;;5059975;28;20664;-41
2022/11/18 12:28:41;;;;;;;28.87;15.40;;;;;;;;;;5058776;28;20293;-41
2022/11/18 12:31:15;;;;;;;21.47;13.87;;;;;;;;;;5040036;28;20216;-41
2022/11/18 12:33:44;;;;;;;28.70;15.50;;;;;;;;;;5040304;28;20556;-41
2022/11/18 12:36:26;;;;;;;21.63;13.70;;;;;;;;;;5040491;28;20689;-41
2022/11/18 12:38:53;;;;;;;24.80;15.07;;;;;;;;;;5042553;28;20228;-40
2022/11/18 12:44:26;;;;;;;25.30;14.40;;;;;;;;;;5053714;28;20235;-41
2022/11/18 12:46:57;;;;;;;26.60;15.90;;;;;;;;;;5059597;28;20235;-42
2022/11/18 12:49:24;;;;;;;46.33;25.80;;;;;;;;;;5054605;28;20277;-40
2022/11/18 12:51:59;;;;;;;24.30;14.20;;;;;;;;;;5057770;28;20219;-42
2022/11/18 12:54:43;;;;;;;39.63;19.63;;;;;;;;;;5055331;28;20254;-41
2022/11/18 12:57:20;;;;;;;94.50;45.90;;;;;;;;;;5060279;28;20293;-41
2022/11/18 12:59:47;;;;;;;26.27;15.00;;;;;;;;;;5060317;28;20565;-40
2022/11/18 13:02:22;;;;;;;24.00;15.90;;;;;;;;;;5056118;28;20212;-41
2022/11/18 13:05:07;;;;;;;21.60;14.80;;;;;;;;;;5053785;28;20538;-42
2022/11/18 13:10:30;;;;;;;25.87;15.23;;;;;;;;;;5049504;28;20220;-41
2022/11/18 13:12:57;;;;;;;27.53;15.07;;;;;;;;;;5055320;28;20220;-41
2022/11/18 13:18:16;;;;;;;29.07;15.13;;;;;;;;;;5059581;28;20227;-43
2022/11/18 13:20:57;;;;;;;26.43;14.90;;;;;;;;;;5058021;28;20307;-43
2022/11/18 13:26:27;;;;;;;25.20;15.03;;;;;;;;;;5054569;28;20231;-47
2022/11/18 13:29:21;;;;;;;23.07;14.57;;;;;;;;;;5058650;28;20238;-44
2022/11/18 13:32:06;;;;;;;23.87;14.67;;;;;;;;;;5043626;28;20293;-43
2022/11/18 13:34:52;;;;;;;27.93;15.37;;;;;;;;;;5056551;28;20236;-48
2022/11/18 13:37:25;;;;;;;25.00;15.33;;;;;;;;;;5055652;28;20242;-48
2022/11/18 13:39:53;;;;;;;25.07;14.13;;;;;;;;;;5038186;28;20228;-46
2022/11/18 13:42:22;;;;;;;23.30;14.90;;;;;;;;;;5056396;28;20538;-46
2022/11/18 13:44:56;;;;;;;32.17;16.50;;;;;;;;;;5055680;28;20208;-44
2022/11/18 13:47:39;;;;;;;24.17;14.20;;;;;;;;;;5055643;28;20690;-47
2022/11/18 13:50:09;;;;;;;24.13;14.80;;;;;;;;;;5055790;28;20277;-44
2022/11/18 13:52:40;;;;;;;26.17;15.73;;;;;;;;;;5051958;28;20310;-44
2022/11/18 13:55:24;;;;;;;22.40;14.33;;;;;;;;;;5055502;28;20601;-44
2022/11/18 13:57:58;;;;;;;23.73;14.40;;;;;;;;;;5039810;28;20243;-44
2022/11/18 14:00:27;;;;;;;28.83;15.50;;;;;;;;;;5046492;28;20703;-49
2022/11/18 14:03:00;;;;;;;27.17;16.07;;;;;;;;;;5054950;28;20223;-44
2022/11/18 14:05:27;;;;;;;25.87;15.03;;;;;;;;;;5055340;28;20220;-47
2022/11/18 14:08:04;;;;;;;25.63;15.33;;;;;;;;;;5054773;28;20242;-43
2022/11/18 14:10:40;;;;;;;25.67;15.53;;;;;;;;;;5055208;28;20688;-44
2022/11/18 14:13:22;;;;;;;24.07;15.20;;;;;;;;;;5055140;28;20229;-43
2022/11/18 14:15:49;;;;;;;29.27;15.53;;;;;;;;;;5053200;28;20232;-43
2022/11/18 14:18:32;;;;;;;31.17;16.70;;;;;;;;;;5054948;28;20226;-44
2022/11/18 14:21:01;;;;;;;28.70;16.90;;;;;;;;;;5055258;28;20224;-43
2022/11/18 14:23:32;;;;;;;29.80;16.73;;;;;;;;;;5052708;28;20231;-45
2022/11/18 14:26:04;;;;;;;28.40;16.10;;;;;;;;;;5051904;28;20293;-43
2022/11/18 14:28:32;;;;;;;27.67;15.37;;;;;;;;;;5055584;28;20539;-42
2022/11/18 14:31:22;;;;;;;26.77;15.27;;;;;;;;;;5055044;28;20220;-42
2022/11/18 14:34:11;;;;;;;29.03;16.40;;;;;;;;;;5039438;28;20298;-42
2022/11/18 14:36:38;;;;;;;28.70;17.07;;;;;;;;;;5050452;28;20224;-42
2022/11/18 14:39:22;;;;;;;29.83;17.63;;;;;;;;;;5049030;28;20224;-43
2022/11/18 14:41:54;;;;;;;30.50;16.53;;;;;;;;;;5053617;28;20226;-43
2022/11/18 14:44:22;;;;;;;27.57;15.90;;;;;;;;;;5054544;28;20239;-47
2022/11/18 14:46:56;;;;;;;28.80;15.87;;;;;;;;;;5054002;28;20220;-47
2022/11/18 14:49:24;;;;;;;28.40;15.60;;;;;;;;;;5053784;28;20228;-43
2022/11/18 14:51:53;;;;;;;26.53;16.17;;;;;;;;;;5055360;28;20225;-47
2022/11/18 14:54:23;;;;;;;26.00;15.37;;;;;;;;;;5054686;28;20232;-44
2022/11/18 14:56:56;;;;;;;26.43;16.23;;;;;;;;;;5055160;28;20282;-63
2022/11/18 14:59:23;;;;;;;30.73;16.33;;;;;;;;;;5053400;28;20247;-45
2022/11/18 15:01:50;;;;;;;31.30;17.60;;;;;;;;;;5054611;28;20234;-44
2022/11/18 15:04:19;;;;;;;24.03;14.70;;;;;;;;;;5054084;28;20315;-46
2022/11/18 15:06:47;;;;;;;30.77;15.93;;;;;;;;;;5054282;28;20223;-45
2022/11/18 15:09:14;;;;;;;28.27;16.13;;;;;;;;;;5054027;28;20235;-44
2022/11/18 15:11:41;;;;;;;26.97;14.43;;;;;;;;;;5053462;28;20224;-45